createdAt,value
2019-05-15T00:01:19.084Z,16.97
2019-05-15T00:03:22.619Z,13.00
2019-05-15T00:05:29.093Z,14.60
2019-05-15T00:07:32.481Z,15.05
2019-05-15T00:09:41.212Z,17.15
2019-05-15T00:11:42.033Z,19.12
2019-05-15T00:13:48.216Z,13.98
2019-05-15T00:15:51.466Z,15.38
2019-05-15T00:17:57.788Z,14.10
2019-05-15T00:20:00.879Z,18.25
2019-05-15T00:22:04.925Z,17.00
2019-05-15T00:24:13.093Z,14.05
2019-05-15T00:26:14.373Z,16.67
2019-05-15T00:28:18.663Z,16.12
2019-05-15T00:30:23.002Z,15.13
2019-05-15T00:32:28.262Z,14.68
2019-05-15T00:34:32.731Z,14.05
2019-05-15T00:36:38.319Z,13.72
2019-05-15T00:38:42.208Z,13.68
2019-05-15T00:40:46.418Z,15.85
2019-05-15T00:42:50.430Z,13.88
2019-05-15T00:44:54.336Z,15.30
2019-05-15T00:46:58.373Z,15.90
2019-05-15T00:49:02.352Z,17.65
2019-05-15T00:51:08.298Z,18.42
2019-05-15T00:53:12.044Z,14.58
2019-05-15T00:55:16.321Z,17.62
2019-05-15T00:57:20.151Z,15.70
2019-05-15T00:59:26.605Z,13.15
2019-05-15T01:01:29.486Z,15.32
2019-05-15T01:03:33.480Z,13.55
2019-05-15T01:05:38.785Z,16.10
2019-05-15T01:07:43.003Z,14.47
2019-05-15T01:09:50.902Z,13.90
2019-05-15T01:11:55.011Z,17.12
2019-05-15T01:13:59.021Z,19.00
2019-05-15T01:16:03.019Z,15.93
2019-05-15T01:18:09.057Z,12.58
2019-05-15T01:20:12.483Z,12.85
2019-05-15T01:22:16.384Z,13.88
2019-05-15T01:24:20.388Z,11.68
2019-05-15T01:26:24.396Z,11.73
2019-05-15T01:28:28.901Z,15.15
2019-05-15T01:30:33.131Z,13.38
2019-05-15T01:32:39.333Z,13.35
2019-05-15T01:34:42.683Z,13.40
2019-05-15T01:36:48.701Z,12.33
2019-05-15T01:38:52.213Z,12.98
2019-05-15T01:40:56.082Z,13.20
2019-05-15T01:42:59.939Z,14.18
2019-05-15T01:45:03.844Z,13.13
2019-05-15T01:47:08.512Z,12.03
2019-05-15T01:49:12.679Z,12.85
2019-05-15T01:51:18.406Z,14.73
2019-05-15T01:53:22.075Z,14.35
2019-05-15T01:55:28.439Z,13.05
2019-05-15T01:57:32.601Z,19.12
2019-05-15T01:59:38.888Z,15.50
2019-05-15T02:01:42.151Z,13.45
2019-05-15T02:03:46.160Z,14.18
2019-05-15T02:05:50.167Z,13.68
2019-05-15T02:07:54.175Z,16.25
2019-05-15T02:09:58.331Z,10.98
2019-05-15T02:12:02.396Z,14.78
2019-05-15T02:14:08.357Z,15.25
2019-05-15T02:16:12.052Z,16.80
2019-05-15T02:18:16.002Z,15.78
2019-05-15T02:20:20.168Z,12.05
2019-05-15T02:22:24.173Z,12.40
2019-05-15T02:24:28.514Z,12.28
2019-05-15T02:26:32.588Z,14.98
2019-05-15T02:28:38.474Z,13.55
2019-05-15T02:30:42.255Z,14.87
2019-05-15T02:32:50.094Z,13.90
2019-05-15T02:34:53.216Z,14.63
2019-05-15T02:37:00.159Z,18.85
2019-05-15T02:39:02.792Z,15.68
2019-05-15T02:41:09.840Z,14.20
2019-05-15T02:43:12.689Z,14.23
2019-05-15T02:45:19.546Z,15.80
2019-05-15T02:47:22.493Z,15.20
2019-05-15T02:49:29.918Z,17.35
2019-05-15T02:51:34.661Z,13.40
2019-05-15T02:53:39.571Z,14.23
2019-05-15T02:55:43.803Z,15.30
2019-05-15T02:57:49.480Z,12.93
2019-05-15T02:59:53.414Z,15.65
2019-05-15T03:01:59.427Z,14.03
2019-05-15T03:04:03.176Z,15.25
2019-05-15T03:06:10.008Z,15.78
2019-05-15T03:08:12.823Z,15.00
2019-05-15T03:10:19.767Z,14.95
2019-05-15T03:12:22.233Z,23.15
2019-05-15T03:14:28.868Z,20.50
2019-05-15T03:16:31.708Z,15.68
2019-05-15T03:18:35.553Z,18.48
2019-05-15T03:20:39.974Z,16.93
2019-05-15T03:22:43.877Z,18.15
2019-05-15T03:24:50.278Z,22.25
2019-05-15T03:26:53.404Z,19.90
2019-05-15T03:28:59.039Z,22.25
2019-05-15T03:31:22.467Z,16.35
2019-05-15T03:33:17.297Z,18.87
2019-05-15T03:35:15.652Z,22.80
2019-05-15T03:37:22.346Z,21.33
2019-05-15T03:39:25.434Z,15.78
2019-05-15T03:41:29.872Z,17.55
2019-05-15T03:43:33.914Z,24.65
2019-05-15T03:45:40.469Z,17.27
2019-05-15T03:47:43.508Z,21.60
2019-05-15T03:49:49.449Z,20.48
2019-05-15T03:51:52.959Z,19.02
2019-05-15T03:54:00.074Z,21.68
2019-05-15T03:56:02.309Z,20.05
2019-05-15T03:58:09.568Z,26.20
2019-05-15T04:00:12.397Z,18.55
2019-05-15T04:02:19.230Z,20.20
2019-05-15T04:04:23.249Z,22.42
2019-05-15T04:06:29.923Z,18.98
2019-05-15T04:08:32.680Z,18.85
2019-05-15T04:10:39.475Z,21.82
2019-05-15T04:12:42.355Z,22.90
2019-05-15T04:14:49.819Z,19.02
2019-05-15T04:16:51.903Z,22.30
2019-05-15T04:18:59.199Z,23.35
2019-05-15T04:21:02.070Z,24.15
2019-05-15T04:23:09.350Z,20.45
2019-05-15T04:25:12.142Z,17.77
2019-05-15T04:27:19.552Z,22.73
2019-05-15T04:29:21.952Z,21.17
2019-05-15T04:31:25.823Z,16.95
2019-05-15T04:33:29.883Z,25.27
2019-05-15T04:35:33.912Z,28.10
2019-05-15T04:37:40.597Z,27.80
2019-05-15T04:39:43.674Z,27.25
2019-05-15T04:41:50.064Z,23.15
2019-05-15T04:43:53.219Z,23.92
2019-05-15T04:45:59.040Z,27.40
2019-05-15T04:48:02.562Z,21.75
2019-05-15T04:50:08.939Z,31.50
2019-05-15T04:52:13.246Z,26.45
2019-05-15T04:54:19.726Z,37.80
2019-05-15T04:56:22.650Z,26.20
2019-05-15T04:58:29.423Z,22.45
2019-05-15T05:00:51.395Z,28.47
2019-05-15T05:02:55.240Z,22.65
2019-05-15T05:04:59.351Z,21.90
2019-05-15T05:07:03.511Z,25.90
2019-05-15T05:09:09.175Z,22.82
2019-05-15T05:11:13.278Z,18.37
2019-05-15T05:13:20.002Z,23.10
2019-05-15T05:15:23.029Z,27.55
2019-05-15T05:17:28.911Z,29.72
2019-05-15T05:19:32.416Z,21.97
2019-05-15T05:21:38.495Z,19.92
2019-05-15T05:23:42.476Z,16.48
2019-05-15T05:25:48.819Z,16.77
2019-05-15T05:27:52.107Z,15.60
2019-05-15T05:29:58.588Z,17.12
2019-05-15T05:32:01.830Z,16.87
2019-05-15T05:34:08.119Z,20.50
2019-05-15T05:36:11.506Z,27.45
2019-05-15T05:38:15.512Z,23.57
2019-05-15T05:40:19.539Z,26.30
2019-05-15T05:42:23.443Z,15.58
2019-05-15T05:44:29.152Z,14.85
2019-05-15T05:46:32.881Z,14.75
2019-05-15T05:48:38.363Z,17.85
2019-05-15T05:50:44.578Z,17.45
2019-05-15T05:52:49.055Z,17.70
2019-05-15T05:54:54.744Z,16.37
2019-05-15T05:56:58.760Z,25.60
2019-05-15T05:59:02.684Z,21.05
2019-05-15T06:01:09.067Z,17.20
2019-05-15T06:03:12.310Z,19.17
2019-05-15T06:05:18.823Z,15.48
2019-05-15T06:07:21.859Z,15.13
2019-05-15T06:09:27.745Z,18.23
2019-05-15T06:11:31.512Z,16.67
2019-05-15T06:13:38.273Z,15.13
2019-05-15T06:15:42.499Z,14.15
2019-05-15T06:17:48.155Z,18.62
2019-05-15T06:19:52.255Z,15.63
2019-05-15T06:21:58.206Z,19.77
2019-05-15T06:24:04.875Z,20.02
2019-05-15T06:26:09.446Z,17.40
2019-05-15T06:28:12.995Z,13.65
2019-05-15T06:30:22.091Z,14.15
2019-05-15T06:32:31.017Z,14.13
2019-05-15T06:34:35.155Z,16.70
2019-05-15T06:36:39.481Z,17.90
2019-05-15T06:38:48.173Z,15.70
2019-05-15T06:40:51.123Z,15.83
2019-05-15T06:42:55.113Z,19.67
2019-05-15T06:44:59.063Z,18.95
2019-05-15T06:47:03.337Z,11.93
2019-05-15T06:49:09.405Z,15.75
2019-05-15T06:51:18.391Z,13.75
2019-05-15T06:53:21.904Z,16.25
2019-05-15T06:55:25.978Z,18.20
2019-05-15T06:57:29.883Z,16.40
2019-05-15T06:59:33.777Z,17.52
2019-05-15T07:01:38.571Z,18.32
2019-05-15T07:03:42.654Z,18.60
2019-05-15T07:05:46.593Z,13.80
2019-05-15T07:07:50.636Z,29.00
2019-05-15T07:09:54.491Z,36.03
2019-05-15T07:11:59.061Z,27.32
2019-05-15T07:14:03.125Z,25.97
2019-05-15T07:16:08.058Z,18.20
2019-05-15T07:18:12.246Z,26.30
2019-05-15T07:20:18.574Z,25.72
2019-05-15T07:22:22.552Z,24.27
2019-05-15T07:24:28.936Z,19.27
2019-05-15T07:26:32.914Z,26.02
2019-05-15T07:28:38.007Z,16.93
2019-05-15T07:30:42.123Z,26.57
2019-05-15T07:32:48.427Z,21.37
2019-05-15T07:34:51.594Z,23.15
2019-05-15T07:36:55.443Z,16.12
2019-05-15T07:38:59.441Z,24.95
2019-05-15T07:41:04.477Z,16.65
2019-05-15T07:43:09.332Z,27.00
2019-05-15T07:45:14.037Z,22.55
2019-05-15T07:47:19.166Z,15.40
2019-05-15T07:49:23.396Z,15.95
2019-05-15T07:51:28.731Z,15.80
2019-05-15T07:53:33.182Z,12.95
2019-05-15T07:55:39.363Z,15.25
2019-05-15T07:57:42.548Z,15.65
2019-05-15T07:59:48.049Z,17.05
2019-05-15T08:01:52.045Z,17.87
2019-05-15T08:04:09.288Z,17.48
2019-05-15T08:06:03.319Z,17.20
2019-05-15T08:08:08.838Z,17.30
2019-05-15T08:10:13.489Z,17.60
2019-05-15T08:12:19.295Z,15.78
2019-05-15T08:14:22.867Z,18.55
2019-05-15T08:16:28.750Z,18.17
2019-05-15T08:18:32.228Z,14.00
2019-05-15T08:20:38.344Z,16.48
2019-05-15T08:22:41.852Z,21.10
2019-05-15T08:24:48.274Z,22.45
2019-05-15T08:26:51.401Z,19.98
2019-05-15T08:28:57.805Z,19.77
2019-05-15T08:31:00.955Z,15.83
2019-05-15T08:33:04.876Z,22.67
2019-05-15T08:35:09.357Z,22.95
2019-05-15T08:37:13.383Z,22.90
2019-05-15T08:39:19.003Z,22.48
2019-05-15T08:41:22.834Z,28.67
2019-05-15T08:43:29.010Z,23.38
2019-05-15T08:45:32.375Z,29.52
2019-05-15T08:47:38.501Z,24.00
2019-05-15T08:49:43.352Z,23.80
2019-05-15T08:51:48.685Z,25.45
2019-05-15T08:53:52.751Z,26.27
2019-05-15T08:55:58.688Z,31.55
2019-05-15T08:58:08.040Z,24.67
2019-05-15T09:00:09.963Z,24.63
2019-05-15T09:02:14.175Z,28.10
2019-05-15T09:04:27.947Z,30.70
2019-05-15T09:06:23.728Z,32.58
2019-05-15T09:08:29.251Z,28.77
2019-05-15T09:10:33.380Z,38.30
2019-05-15T09:12:38.753Z,36.40
2019-05-15T09:14:43.019Z,34.58
2019-05-15T09:16:50.217Z,37.40
2019-05-15T09:18:54.104Z,29.35
2019-05-15T09:20:59.286Z,33.98
2019-05-15T09:23:03.489Z,38.30
2019-05-15T09:25:09.058Z,42.30
2019-05-15T09:27:13.226Z,56.18
2019-05-15T09:29:18.303Z,42.73
2019-05-15T09:31:22.468Z,47.67
2019-05-15T09:33:28.618Z,51.50
2019-05-15T09:35:31.948Z,41.13
2019-05-15T09:37:38.300Z,51.20
2019-05-15T09:39:41.570Z,47.15
2019-05-15T09:41:48.821Z,38.45
2019-05-15T09:43:52.519Z,33.08
2019-05-15T09:45:58.334Z,40.88
2019-05-15T09:48:02.242Z,29.42
2019-05-15T09:50:08.783Z,46.33
2019-05-15T09:52:12.790Z,39.90
2019-05-15T09:54:19.054Z,43.75
2019-05-15T09:56:23.904Z,42.83
2019-05-15T09:58:30.054Z,39.40
2019-05-15T10:00:33.448Z,42.73
2019-05-15T10:02:39.414Z,42.50
2019-05-15T10:04:42.819Z,48.17
2019-05-15T10:06:48.559Z,45.63
2019-05-15T10:08:52.357Z,46.58
2019-05-15T10:10:56.447Z,51.20
2019-05-15T10:13:00.673Z,53.17
2019-05-15T10:15:11.339Z,46.25
2019-05-15T10:17:18.693Z,34.15
2019-05-15T10:19:22.705Z,44.53
2019-05-15T10:21:31.527Z,48.45
2019-05-15T10:23:33.779Z,37.50
2019-05-15T10:25:38.942Z,44.55
2019-05-15T10:27:42.972Z,50.03
2019-05-15T10:29:48.786Z,40.60
2019-05-15T10:31:54.223Z,41.10
2019-05-15T10:33:58.442Z,36.60
2019-05-15T10:36:02.435Z,37.50
2019-05-15T10:38:08.781Z,44.95
2019-05-15T10:40:16.457Z,37.25
2019-05-15T10:42:20.518Z,53.55
2019-05-15T10:44:24.413Z,40.33
2019-05-15T10:46:28.392Z,42.98
2019-05-15T10:48:32.452Z,34.60
2019-05-15T10:50:38.610Z,51.48
2019-05-15T10:52:42.030Z,43.80
2019-05-15T10:54:46.090Z,42.27
2019-05-15T10:56:50.106Z,38.00
2019-05-15T10:58:58.935Z,37.90
2019-05-15T11:01:03.558Z,40.03
2019-05-15T11:03:08.881Z,42.43
2019-05-15T11:05:13.705Z,39.78
2019-05-15T11:07:19.422Z,40.00
2019-05-15T11:09:23.278Z,47.60
2019-05-15T11:11:27.221Z,46.80
2019-05-15T11:13:31.375Z,47.33
2019-05-15T11:15:35.363Z,47.17
2019-05-15T11:17:39.606Z,51.73
2019-05-15T11:19:45.051Z,54.60
2019-05-15T11:21:49.198Z,51.37
2019-05-15T11:23:53.051Z,42.75
2019-05-15T11:25:58.158Z,44.85
2019-05-15T11:28:02.298Z,54.85
2019-05-15T11:30:11.336Z,64.35
2019-05-15T11:32:18.133Z,50.25
2019-05-15T11:34:23.432Z,53.15
2019-05-15T11:36:28.757Z,49.42
2019-05-15T11:38:33.089Z,43.73
2019-05-15T11:40:38.922Z,49.40
2019-05-15T11:42:42.636Z,56.50
2019-05-15T11:44:48.424Z,52.60
2019-05-15T11:46:52.190Z,44.83
2019-05-15T11:48:59.268Z,55.58
2019-05-15T11:51:03.155Z,57.65
2019-05-15T11:53:08.723Z,71.70
2019-05-15T11:55:13.086Z,72.22
2019-05-15T11:57:18.993Z,93.30
2019-05-15T11:59:22.534Z,72.35
2019-05-15T12:01:28.848Z,73.22
2019-05-15T12:03:32.340Z,100.38
2019-05-15T12:05:38.709Z,68.67
2019-05-15T12:07:41.857Z,59.48
2019-05-15T12:09:45.897Z,67.85
2019-05-15T12:11:49.896Z,73.15
2019-05-15T12:13:53.762Z,69.10
2019-05-15T12:16:00.891Z,66.72
2019-05-15T12:18:04.898Z,59.08
2019-05-15T12:20:10.726Z,70.97
2019-05-15T12:22:14.694Z,60.35
2019-05-15T12:24:18.559Z,64.80
2019-05-15T12:26:22.478Z,62.00
2019-05-15T12:28:29.327Z,62.85
2019-05-15T12:30:31.828Z,70.37
2019-05-15T12:32:39.388Z,71.70
2019-05-15T12:34:41.545Z,73.02
2019-05-15T12:36:53.240Z,80.25
2019-05-15T12:38:51.122Z,77.42
2019-05-15T12:59:47.387Z,74.03
2019-05-15T13:01:51.441Z,74.00
2019-05-15T13:03:58.052Z,73.07
2019-05-15T13:06:01.863Z,80.83
2019-05-15T13:08:07.800Z,63.28
2019-05-15T13:10:12.021Z,74.95
2019-05-15T13:12:18.058Z,68.95
2019-05-15T13:14:21.675Z,60.95
2019-05-15T13:16:28.004Z,63.83
2019-05-15T13:18:31.225Z,73.35
2019-05-15T13:20:35.215Z,62.15
2019-05-15T13:22:39.472Z,66.62
2019-05-15T13:24:43.659Z,53.13
2019-05-15T13:26:47.769Z,57.83
2019-05-15T13:28:51.684Z,61.05
2019-05-15T13:30:59.580Z,65.92
2019-05-15T13:33:03.833Z,54.50
2019-05-15T13:35:10.030Z,60.75
2019-05-15T13:37:26.373Z,54.65
2019-05-15T13:39:19.636Z,61.90
2019-05-15T13:41:23.564Z,65.12
2019-05-15T13:43:29.003Z,56.75
2019-05-15T13:45:33.240Z,72.10
2019-05-15T13:47:38.824Z,64.22
2019-05-15T13:49:43.015Z,85.47
2019-05-15T13:51:48.798Z,87.33
2019-05-15T13:53:53.689Z,104.12
2019-05-15T13:55:57.820Z,79.50
2019-05-15T13:58:01.709Z,70.45
2019-05-15T14:00:11.761Z,70.78
2019-05-15T14:02:15.649Z,65.97
2019-05-15T14:04:19.669Z,66.12
2019-05-15T14:06:23.613Z,70.92
2019-05-15T14:08:28.845Z,72.40
2019-05-15T14:10:32.924Z,70.92
2019-05-15T14:12:38.342Z,88.62
2019-05-15T14:14:42.561Z,72.62
2019-05-15T14:16:48.934Z,66.47
2019-05-15T14:18:55.309Z,73.70
2019-05-15T14:20:59.140Z,57.73
2019-05-15T14:23:03.213Z,54.98
2019-05-15T14:25:08.848Z,50.95
2019-05-15T14:27:13.600Z,53.55
2019-05-15T14:29:18.936Z,56.13
2019-05-15T14:31:23.238Z,39.98
2019-05-15T14:33:29.183Z,49.42
2019-05-15T14:35:33.505Z,49.88
2019-05-15T14:37:37.925Z,44.60
2019-05-15T14:39:42.072Z,47.60
2019-05-15T14:41:49.043Z,50.05
2019-05-15T14:43:52.434Z,46.95
2019-05-15T14:45:58.630Z,47.33
2019-05-15T14:48:02.738Z,40.95
2019-05-15T14:50:10.193Z,40.35
2019-05-15T14:52:13.188Z,40.28
2019-05-15T14:54:18.695Z,44.98
2019-05-15T14:56:24.345Z,40.90
2019-05-15T14:58:31.543Z,44.30
2019-05-15T15:00:35.551Z,32.03
2019-05-15T15:02:39.638Z,40.05
2019-05-15T15:04:43.495Z,43.45
2019-05-15T15:06:48.755Z,38.92
2019-05-15T15:08:52.887Z,33.98
2019-05-15T15:10:59.379Z,38.90
2019-05-15T15:13:03.559Z,32.23
2019-05-15T15:15:10.427Z,38.73
2019-05-15T15:17:14.550Z,40.88
2019-05-15T15:19:18.624Z,34.18
2019-05-15T15:21:22.908Z,41.28
2019-05-15T15:23:28.348Z,37.33
2019-05-15T15:25:32.602Z,31.40
2019-05-15T15:27:38.691Z,30.17
2019-05-15T15:29:42.206Z,39.53
2019-05-15T15:31:49.178Z,42.93
2019-05-15T15:33:52.548Z,37.03
2019-05-15T15:35:58.093Z,33.35
2019-05-15T15:38:03.841Z,36.08
2019-05-15T15:40:08.667Z,35.23
2019-05-15T15:42:12.553Z,32.73
2019-05-15T15:44:16.492Z,40.10
2019-05-15T15:46:20.489Z,44.38
2019-05-15T15:48:28.501Z,42.33
2019-05-15T15:50:33.009Z,34.43
2019-05-15T15:52:38.456Z,35.65
2019-05-15T15:54:42.919Z,44.95
2019-05-15T15:56:48.536Z,42.90
2019-05-15T15:58:52.724Z,50.17
2019-05-15T16:00:56.732Z,47.00
2019-05-15T16:03:00.774Z,46.20
2019-05-15T16:05:08.574Z,38.20
2019-05-15T16:07:12.779Z,40.90
2019-05-15T16:09:19.523Z,51.30
2019-05-15T16:11:24.989Z,47.30
2019-05-15T16:13:29.350Z,47.80
2019-05-15T16:15:33.695Z,47.85
2019-05-15T16:17:38.502Z,52.58
2019-05-15T16:19:44.576Z,49.15
2019-05-15T16:21:49.168Z,43.38
2019-05-15T16:23:53.191Z,51.85
2019-05-15T16:25:58.239Z,48.87
2019-05-15T16:28:02.608Z,51.65
2019-05-15T16:30:08.485Z,43.60
2019-05-15T16:32:12.586Z,46.48
2019-05-15T16:34:18.683Z,55.70
2019-05-15T16:36:22.277Z,51.58
2019-05-15T16:38:28.357Z,69.25
2019-05-15T16:40:32.230Z,58.95
2019-05-15T16:42:39.119Z,55.48
2019-05-15T16:44:44.774Z,61.60
2019-05-15T16:46:48.619Z,198.85
2019-05-15T16:48:52.772Z,128.25
2019-05-15T16:50:58.068Z,67.62
2019-05-15T16:53:02.107Z,78.60
2019-05-15T16:55:09.233Z,73.02
2019-05-15T16:57:13.304Z,94.52
2019-05-15T16:59:18.200Z,81.12
2019-05-15T17:01:22.445Z,62.65
2019-05-15T17:03:28.702Z,70.00
2019-05-15T17:05:33.543Z,65.87
2019-05-15T17:07:38.733Z,52.23
2019-05-15T17:09:43.287Z,59.08
2019-05-15T17:11:49.166Z,55.45
2019-05-15T17:13:53.454Z,57.90
2019-05-15T17:15:58.411Z,68.60
2019-05-15T17:18:02.648Z,66.90
2019-05-15T17:20:09.726Z,67.62
2019-05-15T17:22:14.195Z,52.70
2019-05-15T17:24:19.943Z,50.98
2019-05-15T17:26:23.850Z,59.05
2019-05-15T17:28:28.976Z,49.73
2019-05-15T17:30:33.501Z,64.27
2019-05-15T17:32:38.850Z,63.02
2019-05-15T17:34:43.124Z,59.20
2019-05-15T17:36:48.939Z,57.00
2019-05-15T17:38:53.832Z,62.60
2019-05-15T17:40:57.915Z,65.17
2019-05-15T17:43:02.746Z,60.55
2019-05-15T17:45:09.062Z,73.00
2019-05-15T17:47:15.277Z,83.52
2019-05-15T17:49:19.229Z,73.00
2019-05-15T17:51:32.462Z,66.87
2019-05-15T17:53:38.073Z,68.42
2019-05-15T17:55:41.735Z,65.45
2019-05-15T17:57:53.720Z,66.90
2019-05-15T17:59:51.331Z,77.78
2019-05-15T18:01:55.334Z,70.78
2019-05-15T18:03:59.952Z,75.05
2019-05-15T18:06:03.897Z,74.45
2019-05-15T18:08:08.873Z,75.92
2019-05-15T18:10:13.048Z,87.40
2019-05-15T18:12:16.924Z,82.90
2019-05-15T18:14:22.453Z,90.92
2019-05-15T18:16:26.321Z,83.62
2019-05-15T18:18:30.332Z,86.60
2019-05-15T18:20:34.391Z,79.20
2019-05-15T18:22:38.527Z,87.60
2019-05-15T18:24:42.491Z,76.65
2019-05-15T18:26:48.530Z,78.02
2019-05-15T18:28:52.033Z,82.92
2019-05-15T18:30:55.926Z,85.38
2019-05-15T18:33:01.085Z,72.95
2019-05-15T18:35:05.530Z,63.50
2019-05-15T18:37:10.217Z,74.80
2019-05-15T18:39:14.223Z,76.17
2019-05-15T18:41:18.509Z,67.12
2019-05-15T18:43:22.782Z,79.37
2019-05-15T18:45:28.779Z,79.07
2019-05-15T18:47:32.646Z,66.07
2019-05-15T18:49:38.006Z,73.85
2019-05-15T18:51:42.080Z,86.85
2019-05-15T18:53:48.047Z,73.85
2019-05-15T18:55:51.608Z,72.30
2019-05-15T18:57:58.538Z,65.55
2019-05-15T19:00:02.595Z,71.07
2019-05-15T19:02:08.032Z,80.83
2019-05-15T19:04:13.652Z,70.10
2019-05-15T19:06:18.507Z,60.33
2019-05-15T19:08:28.243Z,76.92
2019-05-15T19:10:34.024Z,75.22
2019-05-15T19:12:40.873Z,68.52
2019-05-15T19:14:45.961Z,74.77
2019-05-15T19:16:50.115Z,66.40
2019-05-15T19:18:58.368Z,70.57
2019-05-15T19:21:02.346Z,65.20
2019-05-15T19:23:08.001Z,66.72
2019-05-15T19:25:13.825Z,64.15
2019-05-15T19:27:19.741Z,61.55
2019-05-15T19:29:23.320Z,79.70
2019-05-15T19:31:30.667Z,59.88
2019-05-15T19:33:38.201Z,62.70
2019-05-15T19:35:40.562Z,74.97
2019-05-15T19:37:44.474Z,87.35
2019-05-15T19:39:48.411Z,85.75
2019-05-15T19:41:52.484Z,62.35
2019-05-15T19:43:58.149Z,70.37
2019-05-15T19:46:02.300Z,61.92
2019-05-15T19:48:06.203Z,62.27
2019-05-15T19:50:13.176Z,61.83
2019-05-15T19:52:17.962Z,65.10
2019-05-15T19:54:28.535Z,69.58
2019-05-15T19:56:31.973Z,60.50
2019-05-15T19:58:36.011Z,56.35
2019-05-15T20:00:40.084Z,60.00
2019-05-15T20:02:44.302Z,62.05
2019-05-15T20:04:49.085Z,61.73
2019-05-15T20:06:53.487Z,53.98
2019-05-15T20:08:58.639Z,58.58
2019-05-15T20:11:02.720Z,65.12
2019-05-15T20:13:07.097Z,50.25
2019-05-15T20:15:14.376Z,58.48
2019-05-15T20:17:21.565Z,59.73
2019-05-15T20:19:25.675Z,60.55
2019-05-15T20:21:29.682Z,56.18
2019-05-15T20:23:38.214Z,60.10
2019-05-15T20:25:42.408Z,72.65
2019-05-15T20:27:48.163Z,64.82
2019-05-15T20:29:53.611Z,59.90
2019-05-15T20:31:58.659Z,69.65
2019-05-15T20:34:06.119Z,57.80
2019-05-15T20:36:09.752Z,68.57
2019-05-15T20:38:13.991Z,51.77
2019-05-15T20:40:18.302Z,56.45
2019-05-15T20:42:22.489Z,55.40
2019-05-15T20:44:26.774Z,54.45
2019-05-15T20:46:30.710Z,70.32
2019-05-15T20:48:34.603Z,54.80
2019-05-15T20:50:38.724Z,62.55
2019-05-15T20:52:42.733Z,52.90
2019-05-15T20:54:48.026Z,53.42
2019-05-15T20:56:52.128Z,64.70
2019-05-15T20:58:58.172Z,54.95
2019-05-15T21:01:22.944Z,51.15
2019-05-15T21:03:26.857Z,50.95
2019-05-15T21:05:31.327Z,59.18
2019-05-15T21:07:40.105Z,58.95
2019-05-15T21:09:41.804Z,46.68
2019-05-15T21:11:48.254Z,49.38
2019-05-15T21:13:52.996Z,56.37
2019-05-15T21:15:58.955Z,53.25
2019-05-15T21:18:13.527Z,53.73
2019-05-15T21:20:11.959Z,56.58
2019-05-15T21:22:18.067Z,48.00
2019-05-15T21:24:23.528Z,43.52
2019-05-15T21:26:29.147Z,50.63
2019-05-15T21:28:34.659Z,56.35
2019-05-15T21:30:41.141Z,55.75
2019-05-15T21:32:44.105Z,49.63
2019-05-15T21:34:50.878Z,41.83
2019-05-15T21:36:54.783Z,37.42
2019-05-15T21:38:58.727Z,55.45
2019-05-15T21:41:02.697Z,47.13
2019-05-15T21:43:08.813Z,59.58
2019-05-15T21:45:14.549Z,53.13
2019-05-15T21:47:18.933Z,49.38
2019-05-15T21:49:23.232Z,50.40
2019-05-15T21:51:28.125Z,45.52
2019-05-15T21:53:32.375Z,54.50
2019-05-15T21:55:38.705Z,40.23
2019-05-15T21:57:42.354Z,49.95
2019-05-15T21:59:47.986Z,48.70
2019-05-15T22:01:51.811Z,44.35
2019-05-15T22:03:55.983Z,52.88
2019-05-15T22:06:00.106Z,43.78
2019-05-15T22:08:04.307Z,50.38
2019-05-15T22:10:10.824Z,44.58
2019-05-15T22:12:14.589Z,46.10
2019-05-15T22:14:18.809Z,32.78
2019-05-15T22:16:22.950Z,43.30
2019-05-15T22:18:28.093Z,41.98
2019-05-15T22:20:32.105Z,32.63
2019-05-15T22:22:36.009Z,31.85
2019-05-15T22:24:39.963Z,42.48
2019-05-15T22:26:43.972Z,38.38
2019-05-15T22:28:48.976Z,38.38
2019-05-15T22:30:53.420Z,42.08
2019-05-15T22:32:58.649Z,36.88
2019-05-15T22:35:09.113Z,36.63
2019-05-15T22:37:14.037Z,33.60
2019-05-15T22:39:18.912Z,37.75
2019-05-15T22:41:22.880Z,36.85
2019-05-15T22:43:28.687Z,34.50
2019-05-15T22:45:32.533Z,32.83
2019-05-15T22:47:36.865Z,35.48
2019-05-15T22:49:42.087Z,35.13
2019-05-15T22:51:48.455Z,30.05
2019-05-15T22:53:52.148Z,26.87
2019-05-15T22:55:58.652Z,29.37
2019-05-15T22:58:01.805Z,33.10
2019-05-15T23:00:08.759Z,26.70
2019-05-15T23:02:13.299Z,23.67
2019-05-15T23:04:18.135Z,29.72
2019-05-15T23:06:22.236Z,37.75
2019-05-15T23:08:26.140Z,38.63
2019-05-15T23:10:32.502Z,48.85
2019-05-15T23:12:38.260Z,39.83
2019-05-15T23:14:41.802Z,33.95
2019-05-15T23:16:48.142Z,29.42
2019-05-15T23:18:51.502Z,36.77
2019-05-15T23:20:55.921Z,27.07
2019-05-15T23:22:59.825Z,33.20
2019-05-15T23:25:04.449Z,28.60
2019-05-15T23:27:08.881Z,25.17
2019-05-15T23:29:12.942Z,27.62
2019-05-15T23:31:18.804Z,25.15
2019-05-15T23:33:22.425Z,24.77
2019-05-15T23:35:37.901Z,18.23
2019-05-15T23:37:39.166Z,21.80
2019-05-15T23:39:42.841Z,21.87
2019-05-15T23:41:46.833Z,23.07
2019-05-15T23:43:50.858Z,21.17
2019-05-15T23:45:54.756Z,18.87
2019-05-15T23:47:58.685Z,23.47
2019-05-15T23:50:02.677Z,17.65
2019-05-15T23:52:08.741Z,20.05
2019-05-15T23:54:12.236Z,17.82
2019-05-15T23:56:19.021Z,15.98
2019-05-15T23:58:22.087Z,20.08
